Archival Weather

Fukuoka

Fukuoka, Japan (RJFF)

Report from: Monday, August 15, 2022 2:30 PM JST
Current time: Sunday, February 25, 2024 1:36 AM JST

Current weather – Weather history – Daily summaries
Weather forecast

Temperature31.0°C (87.8°F)
Heat index39.1°C (102.4°F)
Dew point26.0°C (78.8°F)
Winds 13 kts (6.7 m/s, 15 mph) South-Southeast (150°)
Visibility6.2 mi. (10 km)
Clouds Ceiling: Broken clouds 0 ft. (0 m)
Few clouds 2,000 ft. (610 m)
Altimeter29.71 in.Hg (1006 mB)
Relative humidity75 %
Density altitude2,521 ft. (768 m)
Flight conditions Low Instrument Meteorological Conditions
Raw dataRJFF 150530Z 15013KT 9999 FEW020 BKN/// 31/26 Q1006 TEMPO TL0600 -TSRA
An error has occurred. This application may no longer respond until reloaded. Reload 🗙